A80 TRACON Summary / KATL TAF
ATL TRACON Summary:
High pressure will continue to dominate the region as a weak low pressure center rides up the east coast along a leftover frontal boundary. Widespread convection is not expected with this feature, but an isolated shower east/south of ATL cannot be ruled out. Expect VFR conditions under a FEW-SCT050 deck with some TCU. Surface winds will north to northeast at 5-8kts and slowly transition to the northwest after 00z. Flight Hazards in the TRACON airspace: None expected.

Updated: 8/03/2015 12:30 PM
ATL Terminal Aerodrome Forecast:

FTUS42 KFFC 031555 AAB
TAFATL
TAF AMD
KATL 031555Z 0316/0418 07006KT P6SM FEW035 FEW250
     FM031800 03005KT P6SM SCT050
     FM040200 35004KT P6SM FEW080
     FM041700 32005KT P6SM FEW040=
ATL TRACON Area Remark:
NONE.
Convective Gate Forecast / Icing Gate Forecast / Vertical Wind Profile (click on image to enlarge)
Convective Gate Forecast
Icing Gate Forecast
table with gate forecasts (convective and CCFP) used April - November while icing gate forecasts are issued
AIRMETs & SIGMETS/ Southeast Radar loop / Satellite Image (click on image to enlarge)

Southeast Radar Loop

 



USA.gov is the U.S. government's official web portal to all federal, state and local government web resources and services.